sensor_id;sensor_type;location;lat;lon;timestamp;pressure;altitude;pressure_sealevel;temperature;humidity
21433;BME280;18592;49.708;10.900;2023-06-22T00:00:14;98747.75;;;25.42;45.79
21433;BME280;18592;49.708;10.900;2023-06-22T00:02:15;98740.06;;;25.39;46.01
21433;BME280;18592;49.708;10.900;2023-06-22T00:04:15;98731.22;;;25.37;45.96
21433;BME280;18592;49.708;10.900;2023-06-22T00:06:16;98739.09;;;25.35;45.88
21433;BME280;18592;49.708;10.900;2023-06-22T00:08:19;98745.41;;;25.32;46.16
21433;BME280;18592;49.708;10.900;2023-06-22T00:10:20;98740.50;;;25.29;45.76
21433;BME280;18592;49.708;10.900;2023-06-22T00:12:20;98743.59;;;25.27;45.87
21433;BME280;18592;49.708;10.900;2023-06-22T00:14:21;98748.25;;;25.23;46.30
21433;BME280;18592;49.708;10.900;2023-06-22T00:16:24;98752.19;;;25.22;45.90
21433;BME280;18592;49.708;10.900;2023-06-22T00:18:25;98753.69;;;25.20;46.30
21433;BME280;18592;49.708;10.900;2023-06-22T00:20:28;98753.56;;;25.16;46.16
21433;BME280;18592;49.708;10.900;2023-06-22T00:22:29;98751.09;;;25.15;46.18
21433;BME280;18592;49.708;10.900;2023-06-22T00:24:29;98735.88;;;25.12;45.99
21433;BME280;18592;49.708;10.900;2023-06-22T00:26:29;98742.16;;;25.09;46.38
21433;BME280;18592;49.708;10.900;2023-06-22T00:28:30;98748.88;;;25.08;46.25
21433;BME280;18592;49.708;10.900;2023-06-22T00:30:31;98747.59;;;25.06;46.15
21433;BME280;18592;49.708;10.900;2023-06-22T00:32:31;98763.03;;;25.03;46.37
21433;BME280;18592;49.708;10.900;2023-06-22T00:34:32;98766.50;;;25.00;46.38
21433;BME280;18592;49.708;10.900;2023-06-22T00:36:34;98775.22;;;24.99;46.34
21433;BME280;18592;49.708;10.900;2023-06-22T00:38:34;98778.69;;;24.96;46.14
21433;BME280;18592;49.708;10.900;2023-06-22T00:40:36;98783.81;;;24.94;46.63
21433;BME280;18592;49.708;10.900;2023-06-22T00:42:38;98786.13;;;24.92;46.58
21433;BME280;18592;49.708;10.900;2023-06-22T00:44:39;98779.25;;;24.89;46.36
21433;BME280;18592;49.708;10.900;2023-06-22T00:46:39;98778.75;;;24.87;46.52
21433;BME280;18592;49.708;10.900;2023-06-22T00:48:44;98783.03;;;24.85;46.46
21433;BME280;18592;49.708;10.900;2023-06-22T00:50:45;98789.31;;;24.82;46.56
21433;BME280;18592;49.708;10.900;2023-06-22T00:52:52;98788.00;;;24.79;46.36
21433;BME280;18592;49.708;10.900;2023-06-22T00:54:53;98787.19;;;24.79;46.71
21433;BME280;18592;49.708;10.900;2023-06-22T00:56:55;98799.81;;;24.76;46.81
21433;BME280;18592;49.708;10.900;2023-06-22T00:58:58;98792.13;;;24.73;46.66
21433;BME280;18592;49.708;10.900;2023-06-22T01:00:59;98788.50;;;24.73;46.79
21433;BME280;18592;49.708;10.900;2023-06-22T01:03:02;98784.09;;;24.72;46.94
21433;BME280;18592;49.708;10.900;2023-06-22T01:05:04;98774.44;;;24.69;46.99
21433;BME280;18592;49.708;10.900;2023-06-22T01:09:27;98733.13;;;24.62;46.97
21433;BME280;18592;49.708;10.900;2023-06-22T01:11:45;98713.16;;;24.60;46.91
21433;BME280;18592;49.708;10.900;2023-06-22T01:14:03;98694.31;;;24.57;47.35
21433;BME280;18592;49.708;10.900;2023-06-22T01:16:23;98678.25;;;24.54;47.41
21433;BME280;18592;49.708;10.900;2023-06-22T01:18:25;98680.91;;;24.51;47.39
21433;BME280;18592;49.708;10.900;2023-06-22T01:20:34;98676.50;;;24.50;47.23
21433;BME280;18592;49.708;10.900;2023-06-22T01:25:43;98676.53;;;24.41;47.41
21433;BME280;18592;49.708;10.900;2023-06-22T01:28:05;98678.84;;;24.39;47.33
21433;BME280;18592;49.708;10.900;2023-06-22T01:30:16;98687.56;;;24.38;46.93
21433;BME280;18592;49.708;10.900;2023-06-22T01:32:19;98687.88;;;24.36;47.23
21433;BME280;18592;49.708;10.900;2023-06-22T01:34:21;98687.41;;;24.34;46.92
21433;BME280;18592;49.708;10.900;2023-06-22T01:36:32;98686.59;;;24.34;47.40
21433;BME280;18592;49.708;10.900;2023-06-22T01:38:33;98687.75;;;24.33;47.57
21433;BME280;18592;49.708;10.900;2023-06-22T01:40:36;98678.59;;;24.32;47.37
21433;BME280;18592;49.708;10.900;2023-06-22T01:42:37;98675.31;;;24.30;47.96
21433;BME280;18592;49.708;10.900;2023-06-22T01:44:40;98667.63;;;24.27;47.83
21433;BME280;18592;49.708;10.900;2023-06-22T01:46:43;98662.41;;;24.26;47.78
21433;BME280;18592;49.708;10.900;2023-06-22T01:48:46;98683.41;;;24.23;48.17
21433;BME280;18592;49.708;10.900;2023-06-22T01:50:47;98689.28;;;24.22;47.62
21433;BME280;18592;49.708;10.900;2023-06-22T01:52:48;98700.44;;;24.22;47.40
21433;BME280;18592;49.708;10.900;2023-06-22T01:54:49;98702.75;;;24.20;47.57
21433;BME280;18592;49.708;10.900;2023-06-22T01:56:58;98701.09;;;24.19;47.49
21433;BME280;18592;49.708;10.900;2023-06-22T01:59:12;98697.03;;;24.16;47.70
21433;BME280;18592;49.708;10.900;2023-06-22T02:01:16;98700.63;;;24.17;47.65
21433;BME280;18592;49.708;10.900;2023-06-22T02:03:30;98701.31;;;24.14;47.40
21433;BME280;18592;49.708;10.900;2023-06-22T02:05:36;98707.22;;;24.12;47.66
21433;BME280;18592;49.708;10.900;2023-06-22T02:07:41;98707.56;;;24.11;47.88
21433;BME280;18592;49.708;10.900;2023-06-22T02:09:45;98707.88;;;24.09;47.72
21433;BME280;18592;49.708;10.900;2023-06-22T02:11:48;98711.03;;;24.08;47.62
21433;BME280;18592;49.708;10.900;2023-06-22T02:13:52;98726.06;;;24.07;47.61
21433;BME280;18592;49.708;10.900;2023-06-22T02:15:52;98720.00;;;24.05;47.62
21433;BME280;18592;49.708;10.900;2023-06-22T02:17:55;98713.97;;;24.02;47.64
21433;BME280;18592;49.708;10.900;2023-06-22T02:19:58;98706.75;;;24.01;47.61
21433;BME280;18592;49.708;10.900;2023-06-22T02:21:58;98695.13;;;23.99;47.57
21433;BME280;18592;49.708;10.900;2023-06-22T02:24:01;98706.63;;;23.98;47.50
21433;BME280;18592;49.708;10.900;2023-06-22T02:26:04;98716.13;;;23.97;47.66
21433;BME280;18592;49.708;10.900;2023-06-22T02:28:16;98719.25;;;23.95;47.90
21433;BME280;18592;49.708;10.900;2023-06-22T02:30:19;98718.44;;;23.95;47.60
21433;BME280;18592;49.708;10.900;2023-06-22T02:32:19;98738.22;;;23.93;47.75
21433;BME280;18592;49.708;10.900;2023-06-22T02:34:24;98756.94;;;23.93;48.13
21433;BME280;18592;49.708;10.900;2023-06-22T02:36:25;98789.06;;;23.90;47.97
21433;BME280;18592;49.708;10.900;2023-06-22T02:38:27;98824.44;;;23.90;48.73
21433;BME280;18592;49.708;10.900;2023-06-22T02:40:28;98892.75;;;23.87;48.48
21433;BME280;18592;49.708;10.900;2023-06-22T02:42:30;98950.41;;;23.87;48.20
21433;BME280;18592;49.708;10.900;2023-06-22T02:44:32;98984.47;;;23.84;48.58
21433;BME280;18592;49.708;10.900;2023-06-22T02:46:47;98987.25;;;23.84;49.06
21433;BME280;18592;49.708;10.900;2023-06-22T02:48:49;98929.94;;;23.83;49.00
21433;BME280;18592;49.708;10.900;2023-06-22T02:50:49;98890.44;;;23.81;49.43
21433;BME280;18592;49.708;10.900;2023-06-22T02:52:50;98905.53;;;23.80;49.45
21433;BME280;18592;49.708;10.900;2023-06-22T02:54:50;98919.78;;;23.78;49.14
21433;BME280;18592;49.708;10.900;2023-06-22T02:56:50;98909.47;;;23.79;48.83
21433;BME280;18592;49.708;10.900;2023-06-22T02:58:52;98905.53;;;23.80;48.97
21433;BME280;18592;49.708;10.900;2023-06-22T03:00:52;98894.41;;;23.80;48.67
21433;BME280;18592;49.708;10.900;2023-06-22T03:02:53;98881.31;;;23.80;48.54
21433;BME280;18592;49.708;10.900;2023-06-22T03:04:54;98877.34;;;23.81;48.37
21433;BME280;18592;49.708;10.900;2023-06-22T03:06:59;98875.38;;;23.82;48.69
21433;BME280;18592;49.708;10.900;2023-06-22T03:09:04;98871.47;;;23.83;48.44
21433;BME280;18592;49.708;10.900;2023-06-22T03:11:06;98869.81;;;23.82;48.96
21433;BME280;18592;49.708;10.900;2023-06-22T03:13:06;98865.06;;;23.82;48.78
21433;BME280;18592;49.708;10.900;2023-06-22T03:15:08;98852.78;;;23.83;49.03
21433;BME280;18592;49.708;10.900;2023-06-22T03:17:20;98849.19;;;23.83;48.83
21433;BME280;18592;49.708;10.900;2023-06-22T03:19:21;98855.91;;;23.82;49.39
21433;BME280;18592;49.708;10.900;2023-06-22T03:21:23;98839.19;;;23.82;49.29
21433;BME280;18592;49.708;10.900;2023-06-22T03:23:23;98822.47;;;23.82;49.64
21433;BME280;18592;49.708;10.900;2023-06-22T03:25:23;98819.69;;;23.82;49.44
21433;BME280;18592;49.708;10.900;2023-06-22T03:27:24;98804.47;;;23.79;49.52
21433;BME280;18592;49.708;10.900;2023-06-22T03:29:25;98799.38;;;23.81;49.59
21433;BME280;18592;49.708;10.900;2023-06-22T03:31:26;98799.38;;;23.81;49.50
21433;BME280;18592;49.708;10.900;2023-06-22T03:33:26;98790.22;;;23.81;49.27
21433;BME280;18592;49.708;10.900;2023-06-22T03:35:27;98790.22;;;23.81;49.55
21433;BME280;18592;49.708;10.900;2023-06-22T03:37:28;98793.00;;;23.81;50.03
21433;BME280;18592;49.708;10.900;2023-06-22T03:39:29;98775.81;;;23.79;49.85
21433;BME280;18592;49.708;10.900;2023-06-22T03:41:32;98774.19;;;23.78;50.17
21433;BME280;18592;49.708;10.900;2023-06-22T03:43:32;98763.06;;;23.78;50.43
21433;BME280;18592;49.708;10.900;2023-06-22T03:45:33;98752.22;;;23.76;50.57
21433;BME280;18592;49.708;10.900;2023-06-22T03:47:33;98741.91;;;23.77;50.63
21433;BME280;18592;49.708;10.900;2023-06-22T03:49:34;98739.47;;;23.75;50.74
21433;BME280;18592;49.708;10.900;2023-06-22T03:51:34;98724.72;;;23.75;50.63
21433;BME280;18592;49.708;10.900;2023-06-22T03:53:35;98733.56;;;23.77;50.34
21433;BME280;18592;49.708;10.900;2023-06-22T03:55:40;98723.56;;;23.76;50.60
21433;BME280;18592;49.708;10.900;2023-06-22T03:57:40;98709.31;;;23.77;50.52
21433;BME280;18592;49.708;10.900;2023-06-22T03:59:56;98709.66;;;23.76;51.61
21433;BME280;18592;49.708;10.900;2023-06-22T04:01:58;98710.47;;;23.76;50.92
21433;BME280;18592;49.708;10.900;2023-06-22T04:03:58;98712.44;;;23.76;51.13
21433;BME280;18592;49.708;10.900;2023-06-22T04:05:58;98702.94;;;23.77;50.96
21433;BME280;18592;49.708;10.900;2023-06-22T04:07:59;98691.81;;;23.77;51.28
21433;BME280;18592;49.708;10.900;2023-06-22T04:09:59;98690.66;;;23.78;50.97
21433;BME280;18592;49.708;10.900;2023-06-22T04:12:01;98693.09;;;23.79;50.92
21433;BME280;18592;49.708;10.900;2023-06-22T04:14:01;98688.34;;;23.80;51.40
21433;BME280;18592;49.708;10.900;2023-06-22T04:16:01;98695.53;;;23.81;50.59
21433;BME280;18592;49.708;10.900;2023-06-22T04:18:02;98689.31;;;23.84;50.37
21433;BME280;18592;49.708;10.900;2023-06-22T04:20:03;98685.38;;;23.85;50.72
21433;BME280;18592;49.708;10.900;2023-06-22T04:22:04;98698.97;;;23.86;50.70
21433;BME280;18592;49.708;10.900;2023-06-22T04:24:05;98693.38;;;23.86;51.13
21433;BME280;18592;49.708;10.900;2023-06-22T04:26:06;98697.00;;;23.87;50.89
21433;BME280;18592;49.708;10.900;2023-06-22T04:28:06;98686.69;;;23.87;51.04
21433;BME280;18592;49.708;10.900;2023-06-22T04:30:12;98688.81;;;23.90;51.24
21433;BME280;18592;49.708;10.900;2023-06-22T04:32:20;98686.50;;;23.92;51.10
21433;BME280;18592;49.708;10.900;2023-06-22T04:34:20;98694.50;;;23.94;50.83
21433;BME280;18592;49.708;10.900;2023-06-22T04:36:20;98684.53;;;23.93;50.82
21433;BME280;18592;49.708;10.900;2023-06-22T04:49:00;98649.22;;;24.55;49.72
21433;BME280;18592;49.708;10.900;2023-06-22T04:51:02;98641.13;;;24.42;49.74
21433;BME280;18592;49.708;10.900;2023-06-22T04:53:04;98637.25;;;24.34;50.68
21433;BME280;18592;49.708;10.900;2023-06-22T04:55:06;98637.13;;;24.31;50.80
21433;BME280;18592;49.708;10.900;2023-06-22T04:57:07;98627.47;;;24.28;51.12
21433;BME280;18592;49.708;10.900;2023-06-22T04:59:16;98646.47;;;24.26;50.93
21433;BME280;18592;49.708;10.900;2023-06-22T05:01:18;98637.81;;;24.28;50.65
21433;BME280;18592;49.708;10.900;2023-06-22T05:03:19;98650.72;;;24.32;50.26
21433;BME280;18592;49.708;10.900;2023-06-22T05:05:19;98644.47;;;24.35;50.78
21433;BME280;18592;49.708;10.900;2023-06-22T05:07:21;98643.44;;;24.40;51.06
21433;BME280;18592;49.708;10.900;2023-06-22T05:09:25;98643.91;;;24.42;50.81
21433;BME280;18592;49.708;10.900;2023-06-22T05:11:27;98642.41;;;24.44;50.47
21433;BME280;18592;49.708;10.900;2023-06-22T05:13:27;98642.09;;;24.46;51.06
21433;BME280;18592;49.708;10.900;2023-06-22T05:15:27;98641.91;;;24.51;50.61
21433;BME280;18592;49.708;10.900;2023-06-22T05:17:28;98642.97;;;24.58;50.67
21433;BME280;18592;49.708;10.900;2023-06-22T05:19:28;98647.19;;;24.64;51.16
21433;BME280;18592;49.708;10.900;2023-06-22T05:21:33;98647.47;;;24.72;50.71
21433;BME280;18592;49.708;10.900;2023-06-22T05:23:33;98648.41;;;24.76;51.62
21433;BME280;18592;49.708;10.900;2023-06-22T05:25:34;98647.41;;;24.80;50.91
21433;BME280;18592;49.708;10.900;2023-06-22T05:27:37;98641.75;;;24.89;51.68
21433;BME280;18592;49.708;10.900;2023-06-22T05:29:39;98642.81;;;24.96;50.82
21433;BME280;18592;49.708;10.900;2023-06-22T05:31:40;98636.34;;;25.04;50.82
21433;BME280;18592;49.708;10.900;2023-06-22T05:33:41;98643.78;;;25.12;50.98
21433;BME280;18592;49.708;10.900;2023-06-22T05:35:42;98638.81;;;25.18;50.74
21433;BME280;18592;49.708;10.900;2023-06-22T05:37:42;98647.78;;;25.23;50.92
21433;BME280;18592;49.708;10.900;2023-06-22T05:39:43;98646.19;;;25.35;50.92
21433;BME280;18592;49.708;10.900;2023-06-22T05:41:45;98648.06;;;25.43;51.05
21433;BME280;18592;49.708;10.900;2023-06-22T05:44:00;98644.84;;;25.53;51.18
21433;BME280;18592;49.708;10.900;2023-06-22T05:46:01;98649.66;;;25.64;50.83
21433;BME280;18592;49.708;10.900;2023-06-22T05:58:42;98656.19;;;26.81;49.10
21433;BME280;18592;49.708;10.900;2023-06-22T06:00:54;98652.56;;;26.80;49.71
21433;BME280;18592;49.708;10.900;2023-06-22T06:02:57;98650.22;;;26.82;49.96
21433;BME280;18592;49.708;10.900;2023-06-22T06:05:03;98647.63;;;26.89;50.10
21433;BME280;18592;49.708;10.900;2023-06-22T06:07:04;98644.56;;;26.94;49.92
21433;BME280;18592;49.708;10.900;2023-06-22T06:09:04;98646.06;;;27.04;50.13
21433;BME280;18592;49.708;10.900;2023-06-22T06:11:05;98639.97;;;27.14;50.06
21433;BME280;18592;49.708;10.900;2023-06-22T06:13:05;98643.84;;;27.25;50.16
21433;BME280;18592;49.708;10.900;2023-06-22T06:15:06;98637.38;;;27.37;50.46
21433;BME280;18592;49.708;10.900;2023-06-22T06:17:06;98640.13;;;27.49;50.62
21433;BME280;18592;49.708;10.900;2023-06-22T06:19:07;98641.22;;;27.60;50.71
21433;BME280;18592;49.708;10.900;2023-06-22T06:21:07;98643.22;;;27.75;50.51
21433;BME280;18592;49.708;10.900;2023-06-22T06:23:07;98636.78;;;27.90;50.58
21433;BME280;18592;49.708;10.900;2023-06-22T06:25:08;98645.56;;;28.04;50.24
21433;BME280;18592;49.708;10.900;2023-06-22T06:27:17;98633.50;;;28.19;50.41
21433;BME280;18592;49.708;10.900;2023-06-22T06:29:18;98639.44;;;28.33;50.39
21433;BME280;18592;49.708;10.900;2023-06-22T06:31:19;98634.59;;;28.50;50.31
21433;BME280;18592;49.708;10.900;2023-06-22T06:33:20;98642.56;;;28.63;50.04
21433;BME280;18592;49.708;10.900;2023-06-22T06:35:36;98630.44;;;28.78;49.81
21433;BME280;18592;49.708;10.900;2023-06-22T06:37:40;98629.47;;;28.90;49.62
21433;BME280;18592;49.708;10.900;2023-06-22T06:39:41;98614.47;;;29.02;49.68
21433;BME280;18592;49.708;10.900;2023-06-22T06:41:49;98617.94;;;29.14;49.55
21433;BME280;18592;49.708;10.900;2023-06-22T06:43:50;98608.94;;;29.24;49.34
21433;BME280;18592;49.708;10.900;2023-06-22T06:46:00;98614.38;;;29.36;49.47
21433;BME280;18592;49.708;10.900;2023-06-22T06:48:03;98609.00;;;29.50;49.25
21433;BME280;18592;49.708;10.900;2023-06-22T06:50:04;98608.00;;;29.62;48.93
21433;BME280;18592;49.708;10.900;2023-06-22T06:52:05;98611.44;;;29.75;49.18
21433;BME280;18592;49.708;10.900;2023-06-22T06:54:06;98608.00;;;29.85;48.84
21433;BME280;18592;49.708;10.900;2023-06-22T06:56:08;98615.41;;;29.96;49.24
21433;BME280;18592;49.708;10.900;2023-06-22T06:58:10;98615.16;;;30.05;49.00
21433;BME280;18592;49.708;10.900;2023-06-22T07:00:28;98610.94;;;30.18;48.81
21433;BME280;18592;49.708;10.900;2023-06-22T07:02:29;98610.28;;;30.28;48.70
21433;BME280;18592;49.708;10.900;2023-06-22T07:04:29;98606.03;;;30.38;48.70
21433;BME280;18592;49.708;10.900;2023-06-22T07:06:29;98597.28;;;30.46;48.19
21433;BME280;18592;49.708;10.900;2023-06-22T07:08:39;98604.66;;;30.54;48.15
21433;BME280;18592;49.708;10.900;2023-06-22T07:10:45;98602.38;;;30.63;47.52
21433;BME280;18592;49.708;10.900;2023-06-22T07:12:45;98607.69;;;30.72;47.64
21433;BME280;18592;49.708;10.900;2023-06-22T07:14:45;98601.38;;;30.82;47.92
21433;BME280;18592;49.708;10.900;2023-06-22T07:16:46;98595.03;;;30.89;47.42
21433;BME280;18592;49.708;10.900;2023-06-22T07:18:46;98595.19;;;30.99;47.57
21433;BME280;18592;49.708;10.900;2023-06-22T07:20:46;98595.28;;;31.06;47.54
21433;BME280;18592;49.708;10.900;2023-06-22T07:22:52;98591.75;;;31.16;47.22
21433;BME280;18592;49.708;10.900;2023-06-22T07:25:08;98589.44;;;31.25;47.75
21433;BME280;18592;49.708;10.900;2023-06-22T07:27:09;98585.09;;;31.35;47.68
21433;BME280;18592;49.708;10.900;2023-06-22T07:29:22;98581.97;;;31.43;47.34
21433;BME280;18592;49.708;10.900;2023-06-22T07:31:24;98587.69;;;31.51;46.85
21433;BME280;18592;49.708;10.900;2023-06-22T07:33:24;98590.19;;;31.59;47.28
21433;BME280;18592;49.708;10.900;2023-06-22T07:35:27;98589.47;;;31.69;47.17
21433;BME280;18592;49.708;10.900;2023-06-22T07:48:08;98567.19;;;32.77;44.25
21433;BME280;18592;49.708;10.900;2023-06-22T07:50:19;98570.84;;;32.74;44.60
21433;BME280;18592;49.708;10.900;2023-06-22T07:52:20;98577.28;;;32.74;44.25
21433;BME280;18592;49.708;10.900;2023-06-22T07:54:21;98571.63;;;32.74;43.76
21433;BME280;18592;49.708;10.900;2023-06-22T07:56:26;98571.25;;;32.76;44.00
21433;BME280;18592;49.708;10.900;2023-06-22T07:58:26;98572.88;;;32.80;44.22
21433;BME280;18592;49.708;10.900;2023-06-22T08:00:26;98572.50;;;32.85;43.85
21433;BME280;18592;49.708;10.900;2023-06-22T08:02:42;98576.16;;;32.93;43.93
21433;BME280;18592;49.708;10.900;2023-06-22T08:04:43;98577.38;;;32.99;44.03
21433;BME280;18592;49.708;10.900;2023-06-22T08:06:43;98579.84;;;33.04;43.53
21433;BME280;18592;49.708;10.900;2023-06-22T08:08:43;98578.25;;;33.06;43.83
21433;BME280;18592;49.708;10.900;2023-06-22T08:10:50;98586.72;;;33.10;43.63
21433;BME280;18592;49.708;10.900;2023-06-22T08:12:51;98596.81;;;33.14;43.39
21433;BME280;18592;49.708;10.900;2023-06-22T08:14:52;98587.16;;;33.19;43.57
21433;BME280;18592;49.708;10.900;2023-06-22T08:16:52;98590.38;;;33.24;43.54
21433;BME280;18592;49.708;10.900;2023-06-22T08:18:53;98592.81;;;33.30;43.54
21433;BME280;18592;49.708;10.900;2023-06-22T08:21:07;98586.75;;;33.35;43.57
21433;BME280;18592;49.708;10.900;2023-06-22T08:23:14;98579.09;;;33.42;43.68
21433;BME280;18592;49.708;10.900;2023-06-22T08:25:15;98575.88;;;33.51;43.47
21433;BME280;18592;49.708;10.900;2023-06-22T08:27:15;98573.50;;;33.60;44.02
21433;BME280;18592;49.708;10.900;2023-06-22T08:29:18;98567.84;;;33.67;43.52
21433;BME280;18592;49.708;10.900;2023-06-22T08:31:18;98562.59;;;33.76;43.31
21433;BME280;18592;49.708;10.900;2023-06-22T08:33:19;98555.28;;;33.85;43.45
21433;BME280;18592;49.708;10.900;2023-06-22T08:35:30;98554.47;;;33.96;43.18
21433;BME280;18592;49.708;10.900;2023-06-22T08:37:30;98565.38;;;34.04;43.23
21433;BME280;18592;49.708;10.900;2023-06-22T08:39:46;98553.28;;;34.14;43.38
21433;BME280;18592;49.708;10.900;2023-06-22T08:41:47;98558.09;;;34.24;43.10
21433;BME280;18592;49.708;10.900;2023-06-22T08:43:48;98563.75;;;34.35;42.81
21433;BME280;18592;49.708;10.900;2023-06-22T08:45:48;98545.91;;;34.45;43.59
21433;BME280;18592;49.708;10.900;2023-06-22T08:47:48;98549.94;;;34.58;43.50
21433;BME280;18592;49.708;10.900;2023-06-22T08:49:49;98549.88;;;34.69;43.37
21433;BME280;18592;49.708;10.900;2023-06-22T08:51:49;98549.00;;;34.79;42.66
21433;BME280;18592;49.708;10.900;2023-06-22T08:53:52;98549.38;;;34.88;42.78
21433;BME280;18592;49.708;10.900;2023-06-22T08:55:52;98541.66;;;34.99;42.55
21433;BME280;18592;49.708;10.900;2023-06-22T08:57:56;98542.00;;;35.08;41.84
21433;BME280;18592;49.708;10.900;2023-06-22T08:59:56;98534.28;;;35.16;42.06
21433;BME280;18592;49.708;10.900;2023-06-22T09:12:42;98519.00;;;36.39;40.40
21433;BME280;18592;49.708;10.900;2023-06-22T09:14:43;98517.78;;;36.40;40.60
21433;BME280;18592;49.708;10.900;2023-06-22T09:16:48;98514.50;;;36.42;40.76
21433;BME280;18592;49.708;10.900;2023-06-22T09:18:48;98522.53;;;36.47;41.14
21433;BME280;18592;49.708;10.900;2023-06-22T09:20:49;98518.44;;;36.55;41.44
21433;BME280;18592;49.708;10.900;2023-06-22T09:22:49;98513.09;;;36.60;40.64
21433;BME280;18592;49.708;10.900;2023-06-22T09:24:50;98511.38;;;36.66;40.42
21433;BME280;18592;49.708;10.900;2023-06-22T09:26:50;98512.50;;;36.72;40.25
21433;BME280;18592;49.708;10.900;2023-06-22T09:28:50;98516.09;;;36.76;39.49
21433;BME280;18592;49.708;10.900;2023-06-22T09:30:51;98521.72;;;36.83;39.67
21433;BME280;18592;49.708;10.900;2023-06-22T09:32:51;98505.84;;;36.86;39.64
21433;BME280;18592;49.708;10.900;2023-06-22T09:34:52;98501.72;;;36.90;39.50
21433;BME280;18592;49.708;10.900;2023-06-22T09:36:53;98501.66;;;36.94;39.15
21433;BME280;18592;49.708;10.900;2023-06-22T09:38:53;98491.88;;;36.99;39.52
21433;BME280;18592;49.708;10.900;2023-06-22T09:40:58;98485.25;;;37.05;39.65
21433;BME280;18592;49.708;10.900;2023-06-22T09:42:59;98483.97;;;37.10;39.10
21433;BME280;18592;49.708;10.900;2023-06-22T09:44:59;98484.28;;;37.15;39.17
21433;BME280;18592;49.708;10.900;2023-06-22T09:47:13;98481.78;;;37.21;38.40
21433;BME280;18592;49.708;10.900;2023-06-22T09:49:14;98490.63;;;37.26;38.45
21433;BME280;18592;49.708;10.900;2023-06-22T09:51:31;98493.00;;;37.31;37.73
21433;BME280;18592;49.708;10.900;2023-06-22T09:53:31;98498.59;;;37.35;38.35
21433;BME280;18592;49.708;10.900;2023-06-22T09:55:32;98507.91;;;37.39;37.61
21433;BME280;18592;49.708;10.900;2023-06-22T09:57:32;98518.00;;;37.43;38.10
21433;BME280;18592;49.708;10.900;2023-06-22T09:59:33;98512.63;;;37.49;37.79
21433;BME280;18592;49.708;10.900;2023-06-22T10:01:36;98512.16;;;37.54;38.32
21433;BME280;18592;49.708;10.900;2023-06-22T10:03:36;98502.66;;;37.61;38.20
21433;BME280;18592;49.708;10.900;2023-06-22T10:05:37;98494.81;;;37.68;38.06
21433;BME280;18592;49.708;10.900;2023-06-22T10:07:38;98500.38;;;37.75;37.72
21433;BME280;18592;49.708;10.900;2023-06-22T10:09:42;98501.88;;;37.83;37.89
21433;BME280;18592;49.708;10.900;2023-06-22T10:11:42;98492.44;;;37.90;36.43
21433;BME280;18592;49.708;10.900;2023-06-22T10:13:43;98497.63;;;37.95;36.99
21433;BME280;18592;49.708;10.900;2023-06-22T10:15:49;98497.50;;;38.02;36.69
21433;BME280;18592;49.708;10.900;2023-06-22T10:18:00;98493.69;;;38.08;36.80
21433;BME280;18592;49.708;10.900;2023-06-22T10:20:13;98491.94;;;38.14;36.18
21433;BME280;18592;49.708;10.900;2023-06-22T10:22:17;98484.94;;;38.19;36.16
21433;BME280;18592;49.708;10.900;2023-06-22T10:24:18;98477.50;;;38.25;36.08
21433;BME280;18592;49.708;10.900;2023-06-22T10:26:21;98475.75;;;38.31;36.16
21433;BME280;18592;49.708;10.900;2023-06-22T10:28:29;98483.38;;;38.38;35.93
21433;BME280;18592;49.708;10.900;2023-06-22T10:30:35;98488.91;;;38.45;35.97
21433;BME280;18592;49.708;10.900;2023-06-22T10:32:37;98488.75;;;38.52;36.10
21433;BME280;18592;49.708;10.900;2023-06-22T10:34:37;98493.50;;;38.58;35.81
21433;BME280;18592;49.708;10.900;2023-06-22T10:36:39;98497.00;;;38.66;35.94
21433;BME280;18592;49.708;10.900;2023-06-22T10:38:54;98494.03;;;38.73;35.80
21433;BME280;18592;49.708;10.900;2023-06-22T10:40:55;98488.19;;;38.80;35.80
21433;BME280;18592;49.708;10.900;2023-06-22T10:43:00;98485.16;;;38.87;35.63
21433;BME280;18592;49.708;10.900;2023-06-22T10:45:00;98478.88;;;38.96;36.00
21433;BME280;18592;49.708;10.900;2023-06-22T10:47:02;98473.00;;;39.03;35.95
21433;BME280;18592;49.708;10.900;2023-06-22T10:49:06;98469.97;;;39.10;35.57
21433;BME280;18592;49.708;10.900;2023-06-22T10:51:06;98468.19;;;39.16;35.61
21433;BME280;18592;49.708;10.900;2023-06-22T10:53:06;98468.03;;;39.23;35.65
21433;BME280;18592;49.708;10.900;2023-06-22T10:55:08;98474.84;;;39.29;35.51
21433;BME280;18592;49.708;10.900;2023-06-22T10:57:09;98463.25;;;39.36;35.35
21433;BME280;18592;49.708;10.900;2023-06-22T10:59:09;98461.00;;;39.44;35.43
21433;BME280;18592;49.708;10.900;2023-06-22T11:01:09;98465.72;;;39.50;35.49
21433;BME280;18592;49.708;10.900;2023-06-22T11:03:10;98456.97;;;39.57;35.22
21433;BME280;18592;49.708;10.900;2023-06-22T11:05:10;98448.69;;;39.63;34.89
21433;BME280;18592;49.708;10.900;2023-06-22T11:07:20;98457.53;;;39.68;34.31
21433;BME280;18592;49.708;10.900;2023-06-22T11:09:24;98443.16;;;39.72;34.22
21433;BME280;18592;49.708;10.900;2023-06-22T11:11:30;98442.63;;;39.77;34.60
21433;BME280;18592;49.708;10.900;2023-06-22T11:13:30;98447.78;;;39.82;34.16
21433;BME280;18592;49.708;10.900;2023-06-22T11:15:31;98441.16;;;39.85;33.66
21433;BME280;18592;49.708;10.900;2023-06-22T11:17:31;98437.06;;;39.86;32.76
21433;BME280;18592;49.708;10.900;2023-06-22T11:19:31;98439.91;;;39.86;32.96
21433;BME280;18592;49.708;10.900;2023-06-22T11:21:32;98436.72;;;39.84;32.69
21433;BME280;18592;49.708;10.900;2023-06-22T11:23:32;98427.34;;;39.83;32.64
21433;BME280;18592;49.708;10.900;2023-06-22T11:25:33;98431.09;;;39.80;32.79
21433;BME280;18592;49.708;10.900;2023-06-22T11:27:35;98419.66;;;39.80;32.96
21433;BME280;18592;49.708;10.900;2023-06-22T11:29:35;98425.38;;;39.80;32.47